sensor_id;sensor_type;location;lat;lon;timestamp;P1;durP1;ratioP1;P2;durP2;ratioP2
13897;SDS011;7019;50.766;4.474;2023-05-10T00:01:19;11.47;;;6.70;;
13897;SDS011;7019;50.766;4.474;2023-05-10T00:03:47;12.00;;;7.47;;
13897;SDS011;7019;50.766;4.474;2023-05-10T00:06:14;12.67;;;7.67;;
13897;SDS011;7019;50.766;4.474;2023-05-10T00:08:41;9.40;;;6.33;;
13897;SDS011;7019;50.766;4.474;2023-05-10T00:11:08;12.20;;;7.17;;
13897;SDS011;7019;50.766;4.474;2023-05-10T00:13:35;13.47;;;7.63;;
13897;SDS011;7019;50.766;4.474;2023-05-10T00:16:03;11.30;;;6.37;;
13897;SDS011;7019;50.766;4.474;2023-05-10T00:18:32;14.80;;;6.47;;
13897;SDS011;7019;50.766;4.474;2023-05-10T00:20:59;10.10;;;6.07;;
13897;SDS011;7019;50.766;4.474;2023-05-10T00:23:26;12.07;;;6.30;;
13897;SDS011;7019;50.766;4.474;2023-05-10T00:25:53;12.40;;;6.43;;
13897;SDS011;7019;50.766;4.474;2023-05-10T00:28:20;10.63;;;6.07;;
13897;SDS011;7019;50.766;4.474;2023-05-10T00:30:47;13.30;;;6.97;;
13897;SDS011;7019;50.766;4.474;2023-05-10T00:33:14;11.23;;;7.33;;
13897;SDS011;7019;50.766;4.474;2023-05-10T00:35:42;10.00;;;6.33;;
13897;SDS011;7019;50.766;4.474;2023-05-10T00:38:09;11.13;;;6.90;;
13897;SDS011;7019;50.766;4.474;2023-05-10T00:40:37;9.83;;;6.47;;
13897;SDS011;7019;50.766;4.474;2023-05-10T00:43:04;13.20;;;6.63;;
13897;SDS011;7019;50.766;4.474;2023-05-10T00:45:31;11.70;;;5.90;;
13897;SDS011;7019;50.766;4.474;2023-05-10T00:48:00;12.30;;;6.70;;
13897;SDS011;7019;50.766;4.474;2023-05-10T00:50:28;9.97;;;6.83;;
13897;SDS011;7019;50.766;4.474;2023-05-10T00:52:58;13.90;;;7.37;;
13897;SDS011;7019;50.766;4.474;2023-05-10T00:55:25;13.90;;;7.47;;
13897;SDS011;7019;50.766;4.474;2023-05-10T00:57:53;9.90;;;6.40;;
13897;SDS011;7019;50.766;4.474;2023-05-10T01:00:20;10.57;;;7.07;;
13897;SDS011;7019;50.766;4.474;2023-05-10T01:02:48;12.40;;;7.83;;
13897;SDS011;7019;50.766;4.474;2023-05-10T01:05:15;10.60;;;7.33;;
13897;SDS011;7019;50.766;4.474;2023-05-10T01:07:42;16.43;;;7.70;;
13897;SDS011;7019;50.766;4.474;2023-05-10T01:10:11;11.93;;;7.27;;
13897;SDS011;7019;50.766;4.474;2023-05-10T01:12:39;11.40;;;7.43;;
13897;SDS011;7019;50.766;4.474;2023-05-10T01:15:09;14.07;;;8.23;;
13897;SDS011;7019;50.766;4.474;2023-05-10T01:17:37;11.83;;;7.50;;
13897;SDS011;7019;50.766;4.474;2023-05-10T01:20:07;12.93;;;7.17;;
13897;SDS011;7019;50.766;4.474;2023-05-10T01:22:49;10.97;;;7.60;;
13897;SDS011;7019;50.766;4.474;2023-05-10T01:25:49;12.37;;;7.27;;
13897;SDS011;7019;50.766;4.474;2023-05-10T01:28:40;13.73;;;7.37;;
13897;SDS011;7019;50.766;4.474;2023-05-10T01:31:28;18.47;;;7.70;;
13897;SDS011;7019;50.766;4.474;2023-05-10T01:34:06;11.60;;;7.20;;
13897;SDS011;7019;50.766;4.474;2023-05-10T01:36:38;13.80;;;7.87;;
13897;SDS011;7019;50.766;4.474;2023-05-10T01:39:11;13.27;;;8.17;;
13897;SDS011;7019;50.766;4.474;2023-05-10T01:41:45;13.07;;;8.27;;
13897;SDS011;7019;50.766;4.474;2023-05-10T01:44:18;16.23;;;8.20;;
13897;SDS011;7019;50.766;4.474;2023-05-10T01:46:51;13.67;;;9.07;;
13897;SDS011;7019;50.766;4.474;2023-05-10T01:49:26;15.50;;;9.17;;
13897;SDS011;7019;50.766;4.474;2023-05-10T01:51:59;11.97;;;7.90;;
13897;SDS011;7019;50.766;4.474;2023-05-10T01:54:31;16.47;;;8.37;;
13897;SDS011;7019;50.766;4.474;2023-05-10T01:57:01;13.07;;;8.30;;
13897;SDS011;7019;50.766;4.474;2023-05-10T01:59:33;13.73;;;8.53;;
13897;SDS011;7019;50.766;4.474;2023-05-10T02:02:05;11.33;;;7.83;;
13897;SDS011;7019;50.766;4.474;2023-05-10T02:04:38;12.40;;;8.70;;
13897;SDS011;7019;50.766;4.474;2023-05-10T02:07:06;13.97;;;8.30;;
13897;SDS011;7019;50.766;4.474;2023-05-10T02:09:35;14.87;;;8.30;;
13897;SDS011;7019;50.766;4.474;2023-05-10T02:12:05;13.37;;;9.00;;
13897;SDS011;7019;50.766;4.474;2023-05-10T02:14:34;14.20;;;9.07;;
13897;SDS011;7019;50.766;4.474;2023-05-10T02:17:03;13.50;;;8.10;;
13897;SDS011;7019;50.766;4.474;2023-05-10T02:19:32;18.57;;;9.57;;
13897;SDS011;7019;50.766;4.474;2023-05-10T02:22:03;15.07;;;8.87;;
13897;SDS011;7019;50.766;4.474;2023-05-10T02:24:32;15.43;;;9.03;;
13897;SDS011;7019;50.766;4.474;2023-05-10T02:27:00;15.73;;;7.67;;
13897;SDS011;7019;50.766;4.474;2023-05-10T02:29:29;14.87;;;9.37;;
13897;SDS011;7019;50.766;4.474;2023-05-10T02:31:58;15.17;;;8.20;;
13897;SDS011;7019;50.766;4.474;2023-05-10T02:34:26;11.00;;;7.63;;
13897;SDS011;7019;50.766;4.474;2023-05-10T02:36:54;15.43;;;9.10;;
13897;SDS011;7019;50.766;4.474;2023-05-10T02:39:23;13.87;;;8.00;;
13897;SDS011;7019;50.766;4.474;2023-05-10T02:41:53;18.97;;;9.87;;
13897;SDS011;7019;50.766;4.474;2023-05-10T02:44:20;14.73;;;8.53;;
13897;SDS011;7019;50.766;4.474;2023-05-10T02:46:50;13.20;;;8.27;;
13897;SDS011;7019;50.766;4.474;2023-05-10T02:49:17;16.90;;;8.57;;
13897;SDS011;7019;50.766;4.474;2023-05-10T02:51:47;14.23;;;8.53;;
13897;SDS011;7019;50.766;4.474;2023-05-10T02:54:18;16.13;;;9.67;;
13897;SDS011;7019;50.766;4.474;2023-05-10T02:56:49;18.17;;;10.03;;
13897;SDS011;7019;50.766;4.474;2023-05-10T02:59:20;17.13;;;9.13;;
13897;SDS011;7019;50.766;4.474;2023-05-10T03:01:47;19.83;;;9.97;;
13897;SDS011;7019;50.766;4.474;2023-05-10T03:04:14;19.00;;;10.00;;
13897;SDS011;7019;50.766;4.474;2023-05-10T03:06:41;17.53;;;11.10;;
13897;SDS011;7019;50.766;4.474;2023-05-10T03:09:08;23.27;;;11.40;;
13897;SDS011;7019;50.766;4.474;2023-05-10T03:11:40;18.27;;;10.40;;
13897;SDS011;7019;50.766;4.474;2023-05-10T03:14:21;20.27;;;11.40;;
13897;SDS011;7019;50.766;4.474;2023-05-10T03:16:56;20.20;;;10.93;;
13897;SDS011;7019;50.766;4.474;2023-05-10T03:19:27;19.70;;;10.57;;
13897;SDS011;7019;50.766;4.474;2023-05-10T03:21:59;21.07;;;11.13;;
13897;SDS011;7019;50.766;4.474;2023-05-10T03:24:30;19.13;;;10.97;;
13897;SDS011;7019;50.766;4.474;2023-05-10T03:27:00;24.30;;;12.10;;
13897;SDS011;7019;50.766;4.474;2023-05-10T03:29:30;22.83;;;11.50;;
13897;SDS011;7019;50.766;4.474;2023-05-10T03:31:58;16.47;;;10.50;;
13897;SDS011;7019;50.766;4.474;2023-05-10T03:34:25;20.30;;;11.30;;
13897;SDS011;7019;50.766;4.474;2023-05-10T03:36:52;22.90;;;12.07;;
13897;SDS011;7019;50.766;4.474;2023-05-10T03:39:19;19.27;;;11.33;;
13897;SDS011;7019;50.766;4.474;2023-05-10T03:41:46;20.03;;;10.57;;
13897;SDS011;7019;50.766;4.474;2023-05-10T03:44:13;21.33;;;11.97;;
13897;SDS011;7019;50.766;4.474;2023-05-10T03:46:42;18.50;;;10.60;;
13897;SDS011;7019;50.766;4.474;2023-05-10T03:49:09;20.87;;;11.33;;
13897;SDS011;7019;50.766;4.474;2023-05-10T03:51:37;19.03;;;11.30;;
13897;SDS011;7019;50.766;4.474;2023-05-10T03:54:04;19.53;;;11.17;;
13897;SDS011;7019;50.766;4.474;2023-05-10T03:56:31;19.70;;;10.97;;
13897;SDS011;7019;50.766;4.474;2023-05-10T03:58:58;22.23;;;10.80;;
13897;SDS011;7019;50.766;4.474;2023-05-10T04:01:25;16.10;;;9.20;;
13897;SDS011;7019;50.766;4.474;2023-05-10T04:03:54;18.10;;;10.27;;
13897;SDS011;7019;50.766;4.474;2023-05-10T04:06:21;18.93;;;9.93;;
13897;SDS011;7019;50.766;4.474;2023-05-10T04:08:48;18.00;;;10.47;;
13897;SDS011;7019;50.766;4.474;2023-05-10T04:11:15;18.67;;;10.43;;
13897;SDS011;7019;50.766;4.474;2023-05-10T04:13:42;18.67;;;9.10;;
13897;SDS011;7019;50.766;4.474;2023-05-10T04:16:09;18.60;;;10.07;;
13897;SDS011;7019;50.766;4.474;2023-05-10T04:18:36;16.80;;;9.53;;
13897;SDS011;7019;50.766;4.474;2023-05-10T04:21:04;18.47;;;10.20;;
13897;SDS011;7019;50.766;4.474;2023-05-10T04:23:37;16.73;;;9.07;;
13897;SDS011;7019;50.766;4.474;2023-05-10T04:26:04;19.03;;;9.83;;
13897;SDS011;7019;50.766;4.474;2023-05-10T04:28:31;18.27;;;10.53;;
13897;SDS011;7019;50.766;4.474;2023-05-10T04:31:02;20.50;;;9.77;;
13897;SDS011;7019;50.766;4.474;2023-05-10T04:33:29;18.63;;;9.77;;
13897;SDS011;7019;50.766;4.474;2023-05-10T04:35:56;23.83;;;10.77;;
13897;SDS011;7019;50.766;4.474;2023-05-10T04:38:24;17.20;;;9.00;;
13897;SDS011;7019;50.766;4.474;2023-05-10T04:40:52;15.67;;;9.53;;
13897;SDS011;7019;50.766;4.474;2023-05-10T04:43:19;17.20;;;8.87;;
13897;SDS011;7019;50.766;4.474;2023-05-10T04:45:46;15.60;;;8.90;;
13897;SDS011;7019;50.766;4.474;2023-05-10T04:48:13;14.13;;;7.77;;
13897;SDS011;7019;50.766;4.474;2023-05-10T04:50:40;15.70;;;9.03;;
13897;SDS011;7019;50.766;4.474;2023-05-10T04:53:07;13.10;;;6.27;;
13897;SDS011;7019;50.766;4.474;2023-05-10T04:55:35;8.00;;;5.33;;
13897;SDS011;7019;50.766;4.474;2023-05-10T04:58:03;7.83;;;4.83;;
13897;SDS011;7019;50.766;4.474;2023-05-10T05:00:30;5.10;;;3.50;;
13897;SDS011;7019;50.766;4.474;2023-05-10T05:02:59;5.60;;;3.57;;
13897;SDS011;7019;50.766;4.474;2023-05-10T05:05:26;5.47;;;3.47;;
13897;SDS011;7019;50.766;4.474;2023-05-10T05:07:53;7.53;;;3.93;;
13897;SDS011;7019;50.766;4.474;2023-05-10T05:10:20;3.77;;;2.80;;
13897;SDS011;7019;50.766;4.474;2023-05-10T05:12:48;4.37;;;2.50;;
13897;SDS011;7019;50.766;4.474;2023-05-10T05:15:15;5.00;;;2.63;;
13897;SDS011;7019;50.766;4.474;2023-05-10T05:17:43;2.70;;;2.13;;
13897;SDS011;7019;50.766;4.474;2023-05-10T05:20:10;3.67;;;2.07;;
13897;SDS011;7019;50.766;4.474;2023-05-10T05:22:38;3.33;;;2.33;;
13897;SDS011;7019;50.766;4.474;2023-05-10T05:25:05;3.00;;;2.03;;
13897;SDS011;7019;50.766;4.474;2023-05-10T05:27:33;3.10;;;1.80;;
13897;SDS011;7019;50.766;4.474;2023-05-10T05:30:01;3.63;;;2.20;;
13897;SDS011;7019;50.766;4.474;2023-05-10T05:32:29;5.73;;;2.30;;
13897;SDS011;7019;50.766;4.474;2023-05-10T05:34:56;3.67;;;2.27;;
13897;SDS011;7019;50.766;4.474;2023-05-10T05:37:23;4.77;;;2.17;;
13897;SDS011;7019;50.766;4.474;2023-05-10T05:39:50;3.27;;;2.30;;
13897;SDS011;7019;50.766;4.474;2023-05-10T05:42:19;2.77;;;1.97;;
13897;SDS011;7019;50.766;4.474;2023-05-10T05:44:46;2.33;;;1.67;;
13897;SDS011;7019;50.766;4.474;2023-05-10T05:47:15;3.67;;;2.13;;
13897;SDS011;7019;50.766;4.474;2023-05-10T05:49:42;2.97;;;1.70;;
13897;SDS011;7019;50.766;4.474;2023-05-10T05:52:10;1.97;;;1.23;;
13897;SDS011;7019;50.766;4.474;2023-05-10T05:54:37;2.83;;;1.70;;
13897;SDS011;7019;50.766;4.474;2023-05-10T05:57:05;1.83;;;1.10;;
13897;SDS011;7019;50.766;4.474;2023-05-10T05:59:32;3.27;;;1.43;;
13897;SDS011;7019;50.766;4.474;2023-05-10T06:01:59;2.27;;;1.50;;
13897;SDS011;7019;50.766;4.474;2023-05-10T06:04:28;1.23;;;1.10;;
13897;SDS011;7019;50.766;4.474;2023-05-10T06:06:55;1.80;;;1.20;;
13897;SDS011;7019;50.766;4.474;2023-05-10T06:09:22;2.63;;;1.50;;
13897;SDS011;7019;50.766;4.474;2023-05-10T06:11:50;3.10;;;1.40;;
13897;SDS011;7019;50.766;4.474;2023-05-10T06:14:17;2.53;;;1.10;;
13897;SDS011;7019;50.766;4.474;2023-05-10T06:16:46;3.83;;;1.23;;
13897;SDS011;7019;50.766;4.474;2023-05-10T06:19:13;1.50;;;1.20;;
13897;SDS011;7019;50.766;4.474;2023-05-10T06:21:41;1.93;;;1.10;;
13897;SDS011;7019;50.766;4.474;2023-05-10T06:24:08;1.73;;;1.03;;
13897;SDS011;7019;50.766;4.474;2023-05-10T06:26:35;3.53;;;1.30;;
13897;SDS011;7019;50.766;4.474;2023-05-10T06:29:02;1.40;;;1.17;;
13897;SDS011;7019;50.766;4.474;2023-05-10T06:31:30;1.50;;;1.30;;
13897;SDS011;7019;50.766;4.474;2023-05-10T06:33:57;4.20;;;1.23;;
13897;SDS011;7019;50.766;4.474;2023-05-10T06:36:24;1.70;;;1.27;;
13897;SDS011;7019;50.766;4.474;2023-05-10T06:38:52;1.87;;;1.40;;
13897;SDS011;7019;50.766;4.474;2023-05-10T06:41:19;1.83;;;1.57;;
13897;SDS011;7019;50.766;4.474;2023-05-10T06:43:46;3.40;;;1.70;;
13897;SDS011;7019;50.766;4.474;2023-05-10T06:46:14;4.93;;;1.93;;
13897;SDS011;7019;50.766;4.474;2023-05-10T06:48:41;1.73;;;1.47;;
13897;SDS011;7019;50.766;4.474;2023-05-10T06:51:08;1.80;;;1.40;;
13897;SDS011;7019;50.766;4.474;2023-05-10T06:53:35;1.50;;;1.23;;
13897;SDS011;7019;50.766;4.474;2023-05-10T06:56:03;3.90;;;1.43;;
13897;SDS011;7019;50.766;4.474;2023-05-10T06:58:31;2.07;;;1.37;;
13897;SDS011;7019;50.766;4.474;2023-05-10T07:01:01;2.27;;;1.33;;
13897;SDS011;7019;50.766;4.474;2023-05-10T07:03:29;1.47;;;1.30;;
13897;SDS011;7019;50.766;4.474;2023-05-10T07:05:59;2.07;;;1.40;;
13897;SDS011;7019;50.766;4.474;2023-05-10T07:08:29;1.77;;;1.23;;
13897;SDS011;7019;50.766;4.474;2023-05-10T07:11:00;1.50;;;1.00;;
13897;SDS011;7019;50.766;4.474;2023-05-10T07:13:30;1.80;;;1.40;;
13897;SDS011;7019;50.766;4.474;2023-05-10T07:15:57;1.93;;;1.50;;
13897;SDS011;7019;50.766;4.474;2023-05-10T07:18:24;1.77;;;1.53;;
13897;SDS011;7019;50.766;4.474;2023-05-10T07:20:52;3.00;;;1.80;;
13897;SDS011;7019;50.766;4.474;2023-05-10T07:23:19;3.63;;;1.70;;
13897;SDS011;7019;50.766;4.474;2023-05-10T07:25:46;2.93;;;1.57;;
13897;SDS011;7019;50.766;4.474;2023-05-10T07:28:13;2.33;;;1.73;;
13897;SDS011;7019;50.766;4.474;2023-05-10T07:30:42;5.00;;;2.10;;
13897;SDS011;7019;50.766;4.474;2023-05-10T07:33:10;2.77;;;2.07;;
13897;SDS011;7019;50.766;4.474;2023-05-10T07:35:38;3.17;;;2.07;;
13897;SDS011;7019;50.766;4.474;2023-05-10T07:38:05;2.70;;;1.90;;
13897;SDS011;7019;50.766;4.474;2023-05-10T07:40:35;3.37;;;2.20;;
13897;SDS011;7019;50.766;4.474;2023-05-10T07:43:07;3.20;;;2.43;;
13897;SDS011;7019;50.766;4.474;2023-05-10T07:45:34;4.13;;;2.63;;
13897;SDS011;7019;50.766;4.474;2023-05-10T07:48:03;3.87;;;2.60;;
13897;SDS011;7019;50.766;4.474;2023-05-10T07:50:30;5.00;;;2.80;;
13897;SDS011;7019;50.766;4.474;2023-05-10T07:52:57;3.60;;;2.77;;
13897;SDS011;7019;50.766;4.474;2023-05-10T07:55:24;4.13;;;2.13;;
13897;SDS011;7019;50.766;4.474;2023-05-10T07:57:52;2.93;;;2.30;;
13897;SDS011;7019;50.766;4.474;2023-05-10T08:00:19;5.17;;;2.23;;
13897;SDS011;7019;50.766;4.474;2023-05-10T08:02:55;4.23;;;2.40;;
13897;SDS011;7019;50.766;4.474;2023-05-10T08:05:25;3.60;;;1.80;;
13897;SDS011;7019;50.766;4.474;2023-05-10T08:07:52;3.37;;;2.13;;
13897;SDS011;7019;50.766;4.474;2023-05-10T08:10:20;4.67;;;2.50;;
13897;SDS011;7019;50.766;4.474;2023-05-10T08:12:47;3.00;;;2.00;;
13897;SDS011;7019;50.766;4.474;2023-05-10T08:15:19;2.63;;;2.13;;
13897;SDS011;7019;50.766;4.474;2023-05-10T08:17:47;2.60;;;1.90;;
13897;SDS011;7019;50.766;4.474;2023-05-10T08:20:14;2.57;;;1.67;;
13897;SDS011;7019;50.766;4.474;2023-05-10T08:22:46;1.80;;;1.30;;
13897;SDS011;7019;50.766;4.474;2023-05-10T08:25:13;2.17;;;1.50;;
13897;SDS011;7019;50.766;4.474;2023-05-10T08:27:40;3.47;;;1.40;;
13897;SDS011;7019;50.766;4.474;2023-05-10T08:30:08;2.13;;;1.60;;
13897;SDS011;7019;50.766;4.474;2023-05-10T08:32:35;3.03;;;1.77;;
13897;SDS011;7019;50.766;4.474;2023-05-10T08:35:03;1.90;;;1.40;;
13897;SDS011;7019;50.766;4.474;2023-05-10T08:37:31;1.57;;;1.37;;
13897;SDS011;7019;50.766;4.474;2023-05-10T08:39:59;2.13;;;1.20;;
13897;SDS011;7019;50.766;4.474;2023-05-10T08:42:28;2.60;;;1.50;;
13897;SDS011;7019;50.766;4.474;2023-05-10T08:44:58;1.23;;;1.03;;
13897;SDS011;7019;50.766;4.474;2023-05-10T08:47:32;1.50;;;1.10;;
13897;SDS011;7019;50.766;4.474;2023-05-10T08:50:10;1.00;;;0.80;;
13897;SDS011;7019;50.766;4.474;2023-05-10T08:52:48;1.50;;;0.70;;
13897;SDS011;7019;50.766;4.474;2023-05-10T08:55:43;1.47;;;1.33;;
13897;SDS011;7019;50.766;4.474;2023-05-10T08:58:11;1.20;;;0.90;;
13897;SDS011;7019;50.766;4.474;2023-05-10T09:00:48;1.27;;;1.03;;
13897;SDS011;7019;50.766;4.474;2023-05-10T09:03:17;1.87;;;1.00;;
13897;SDS011;7019;50.766;4.474;2023-05-10T09:05:44;0.97;;;0.80;;
13897;SDS011;7019;50.766;4.474;2023-05-10T09:08:12;1.17;;;0.80;;
13897;SDS011;7019;50.766;4.474;2023-05-10T09:10:42;1.27;;;0.70;;
13897;SDS011;7019;50.766;4.474;2023-05-10T09:13:12;1.17;;;0.87;;
13897;SDS011;7019;50.766;4.474;2023-05-10T09:15:40;2.00;;;0.70;;
13897;SDS011;7019;50.766;4.474;2023-05-10T09:18:07;1.53;;;1.00;;
13897;SDS011;7019;50.766;4.474;2023-05-10T09:20:34;1.33;;;1.10;;
13897;SDS011;7019;50.766;4.474;2023-05-10T09:23:01;2.13;;;1.27;;
13897;SDS011;7019;50.766;4.474;2023-05-10T09:25:28;1.63;;;1.10;;
13897;SDS011;7019;50.766;4.474;2023-05-10T09:27:59;1.50;;;1.10;;
13897;SDS011;7019;50.766;4.474;2023-05-10T09:30:27;1.60;;;1.23;;
13897;SDS011;7019;50.766;4.474;2023-05-10T09:32:56;2.10;;;1.10;;
13897;SDS011;7019;50.766;4.474;2023-05-10T09:35:24;1.33;;;1.07;;
13897;SDS011;7019;50.766;4.474;2023-05-10T09:37:53;1.97;;;1.20;;
13897;SDS011;7019;50.766;4.474;2023-05-10T09:40:22;2.63;;;1.03;;
13897;SDS011;7019;50.766;4.474;2023-05-10T09:42:51;2.87;;;1.30;;
13897;SDS011;7019;50.766;4.474;2023-05-10T09:45:21;1.37;;;0.87;;
13897;SDS011;7019;50.766;4.474;2023-05-10T09:47:49;1.90;;;1.53;;
13897;SDS011;7019;50.766;4.474;2023-05-10T09:50:16;1.00;;;0.70;;
13897;SDS011;7019;50.766;4.474;2023-05-10T09:52:46;1.23;;;0.67;;
13897;SDS011;7019;50.766;4.474;2023-05-10T09:55:17;0.80;;;0.77;;
13897;SDS011;7019;50.766;4.474;2023-05-10T09:57:46;1.27;;;0.83;;
13897;SDS011;7019;50.766;4.474;2023-05-10T10:00:17;1.17;;;0.73;;
13897;SDS011;7019;50.766;4.474;2023-05-10T10:02:47;0.80;;;0.70;;
13897;SDS011;7019;50.766;4.474;2023-05-10T10:05:20;0.90;;;0.60;;
13897;SDS011;7019;50.766;4.474;2023-05-10T10:07:47;2.53;;;0.87;;
13897;SDS011;7019;50.766;4.474;2023-05-10T10:10:15;0.83;;;0.60;;
13897;SDS011;7019;50.766;4.474;2023-05-10T10:12:43;1.07;;;0.70;;
13897;SDS011;7019;50.766;4.474;2023-05-10T10:15:10;1.27;;;0.77;;
13897;SDS011;7019;50.766;4.474;2023-05-10T10:17:38;1.67;;;0.83;;
13897;SDS011;7019;50.766;4.474;2023-05-10T10:20:09;1.50;;;0.60;;
13897;SDS011;7019;50.766;4.474;2023-05-10T10:22:36;1.53;;;0.60;;
13897;SDS011;7019;50.766;4.474;2023-05-10T10:25:04;1.73;;;0.53;;
13897;SDS011;7019;50.766;4.474;2023-05-10T10:27:34;0.50;;;0.40;;
13897;SDS011;7019;50.766;4.474;2023-05-10T10:30:10;0.90;;;0.50;;
13897;SDS011;7019;50.766;4.474;2023-05-10T10:32:53;0.60;;;0.50;;
13897;SDS011;7019;50.766;4.474;2023-05-10T10:35:41;3.53;;;0.67;;
13897;SDS011;7019;50.766;4.474;2023-05-10T10:38:10;0.40;;;0.40;;
13897;SDS011;7019;50.766;4.474;2023-05-10T10:40:39;0.50;;;0.33;;
13897;SDS011;7019;50.766;4.474;2023-05-10T10:43:21;0.67;;;0.40;;
13897;SDS011;7019;50.766;4.474;2023-05-10T10:48:38;0.60;;;0.30;;
13897;SDS011;7019;50.766;4.474;2023-05-10T10:51:07;0.60;;;0.50;;
13897;SDS011;7019;50.766;4.474;2023-05-10T10:53:35;1.23;;;0.50;;
13897;SDS011;7019;50.766;4.474;2023-05-10T10:56:05;0.73;;;0.60;;
13897;SDS011;7019;50.766;4.474;2023-05-10T10:58:34;1.37;;;0.87;;
13897;SDS011;7019;50.766;4.474;2023-05-10T11:01:12;1.00;;;0.70;;
13897;SDS011;7019;50.766;4.474;2023-05-10T11:03:40;1.07;;;0.97;;
13897;SDS011;7019;50.766;4.474;2023-05-10T11:06:32;1.33;;;0.70;;
13897;SDS011;7019;50.766;4.474;2023-05-10T11:09:04;1.87;;;1.00;;
13897;SDS011;7019;50.766;4.474;2023-05-10T11:11:34;1.00;;;0.90;;
13897;SDS011;7019;50.766;4.474;2023-05-10T11:14:02;1.43;;;1.20;;
13897;SDS011;7019;50.766;4.474;2023-05-10T11:16:40;1.20;;;0.90;;
13897;SDS011;7019;50.766;4.474;2023-05-10T11:19:10;1.70;;;1.10;;
13897;SDS011;7019;50.766;4.474;2023-05-10T11:21:45;1.17;;;1.07;;
13897;SDS011;7019;50.766;4.474;2023-05-10T11:24:14;1.50;;;1.40;;
13897;SDS011;7019;50.766;4.474;2023-05-10T11:26:42;1.23;;;1.13;;
13897;SDS011;7019;50.766;4.474;2023-05-10T11:29:09;1.07;;;0.93;;
13897;SDS011;7019;50.766;4.474;2023-05-10T11:31:41;1.63;;;1.30;;
13897;SDS011;7019;50.766;4.474;2023-05-10T11:34:10;1.97;;;1.33;;
13897;SDS011;7019;50.766;4.474;2023-05-10T11:36:37;1.30;;;1.20;;
13897;SDS011;7019;50.766;4.474;2023-05-10T11:39:06;1.33;;;1.23;;
13897;SDS011;7019;50.766;4.474;2023-05-10T11:41:33;1.67;;;1.20;;
13897;SDS011;7019;50.766;4.474;2023-05-10T11:44:00;1.70;;;1.43;;
13897;SDS011;7019;50.766;4.474;2023-05-10T11:46:28;3.73;;;1.30;;
13897;SDS011;7019;50.766;4.474;2023-05-10T11:48:55;1.27;;;1.10;;
13897;SDS011;7019;50.766;4.474;2023-05-10T11:51:25;1.83;;;1.30;;
13897;SDS011;7019;50.766;4.474;2023-05-10T11:53:53;1.30;;;1.20;;
13897;SDS011;7019;50.766;4.474;2023-05-10T11:56:22;2.60;;;1.40;;
13897;SDS011;7019;50.766;4.474;2023-05-10T11:58:54;1.70;;;1.40;;
13897;SDS011;7019;50.766;4.474;2023-05-10T12:01:22;1.70;;;1.37;;
13897;SDS011;7019;50.766;4.474;2023-05-10T12:03:51;1.50;;;1.10;;
13897;SDS011;7019;50.766;4.474;2023-05-10T12:06:20;1.27;;;1.10;;
13897;SDS011;7019;50.766;4.474;2023-05-10T12:08:48;1.37;;;0.97;;
13897;SDS011;7019;50.766;4.474;2023-05-10T12:11:17;1.60;;;1.13;;
13897;SDS011;7019;50.766;4.474;2023-05-10T12:13:47;1.30;;;1.20;;
13897;SDS011;7019;50.766;4.474;2023-05-10T12:16:18;1.60;;;1.50;;
13897;SDS011;7019;50.766;4.474;2023-05-10T12:18:47;3.83;;;1.23;;
13897;SDS011;7019;50.766;4.474;2023-05-10T12:21:16;1.50;;;1.33;;
13897;SDS011;7019;50.766;4.474;2023-05-10T12:23:45;1.17;;;1.07;;
13897;SDS011;7019;50.766;4.474;2023-05-10T12:26:13;2.07;;;1.10;;
13897;SDS011;7019;50.766;4.474;2023-05-10T12:28:40;1.13;;;1.03;;
13897;SDS011;7019;50.766;4.474;2023-05-10T12:31:08;2.00;;;1.10;;
13897;SDS011;7019;50.766;4.474;2023-05-10T12:33:36;1.20;;;1.10;;
13897;SDS011;7019;50.766;4.474;2023-05-10T12:36:06;1.30;;;0.97;;
13897;SDS011;7019;50.766;4.474;2023-05-10T12:38:35;1.60;;;1.00;;
13897;SDS011;7019;50.766;4.474;2023-05-10T12:41:04;1.70;;;1.20;;
13897;SDS011;7019;50.766;4.474;2023-05-10T12:43:33;1.40;;;1.20;;
13897;SDS011;7019;50.766;4.474;2023-05-10T12:46:04;1.50;;;1.13;;
13897;SDS011;7019;50.766;4.474;2023-05-10T12:48:34;2.47;;;1.00;;
13897;SDS011;7019;50.766;4.474;2023-05-10T12:51:02;1.30;;;1.00;;
13897;SDS011;7019;50.766;4.474;2023-05-10T12:53:29;1.70;;;1.60;;
13897;SDS011;7019;50.766;4.474;2023-05-10T12:55:57;2.47;;;1.57;;
13897;SDS011;7019;50.766;4.474;2023-05-10T12:58:24;1.20;;;1.10;;
13897;SDS011;7019;50.766;4.474;2023-05-10T13:00:51;1.57;;;1.10;;
13897;SDS011;7019;50.766;4.474;2023-05-10T13:03:19;1.63;;;1.30;;
13897;SDS011;7019;50.766;4.474;2023-05-10T13:05:47;3.53;;;1.80;;
13897;SDS011;7019;50.766;4.474;2023-05-10T13:08:14;2.30;;;1.47;;
13897;SDS011;7019;50.766;4.474;2023-05-10T13:10:41;2.20;;;1.60;;
13897;SDS011;7019;50.766;4.474;2023-05-10T13:13:08;1.60;;;1.17;;
13897;SDS011;7019;50.766;4.474;2023-05-10T13:15:35;1.43;;;1.27;;
13897;SDS011;7019;50.766;4.474;2023-05-10T13:18:03;2.00;;;1.20;;
13897;SDS011;7019;50.766;4.474;2023-05-10T13:20:30;1.53;;;1.20;;
13897;SDS011;7019;50.766;4.474;2023-05-10T13:22:58;2.23;;;1.20;;
13897;SDS011;7019;50.766;4.474;2023-05-10T13:25:25;1.13;;;1.00;;
13897;SDS011;7019;50.766;4.474;2023-05-10T13:27:52;1.07;;;0.97;;
13897;SDS011;7019;50.766;4.474;2023-05-10T13:30:19;1.70;;;1.17;;
13897;SDS011;7019;50.766;4.474;2023-05-10T13:32:47;2.43;;;1.53;;
13897;SDS011;7019;50.766;4.474;2023-05-10T13:35:15;1.70;;;1.50;;
13897;SDS011;7019;50.766;4.474;2023-05-10T13:37:42;2.33;;;1.40;;
13897;SDS011;7019;50.766;4.474;2023-05-10T13:40:10;1.53;;;1.40;;
13897;SDS011;7019;50.766;4.474;2023-05-10T13:42:38;2.13;;;1.40;;
13897;SDS011;7019;50.766;4.474;2023-05-10T13:45:06;1.60;;;1.50;;
13897;SDS011;7019;50.766;4.474;2023-05-10T13:47:33;1.70;;;1.50;;
13897;SDS011;7019;50.766;4.474;2023-05-10T13:50:01;2.00;;;1.23;;
13897;SDS011;7019;50.766;4.474;2023-05-10T13:52:28;1.67;;;1.57;;
13897;SDS011;7019;50.766;4.474;2023-05-10T13:54:55;1.20;;;1.10;;
13897;SDS011;7019;50.766;4.474;2023-05-10T13:57:24;1.53;;;1.43;;
13897;SDS011;7019;50.766;4.474;2023-05-10T13:59:51;1.20;;;1.10;;
13897;SDS011;7019;50.766;4.474;2023-05-10T14:02:18;1.60;;;1.40;;
13897;SDS011;7019;50.766;4.474;2023-05-10T14:04:46;1.90;;;1.53;;
13897;SDS011;7019;50.766;4.474;2023-05-10T14:07:13;1.50;;;1.27;;
13897;SDS011;7019;50.766;4.474;2023-05-10T14:09:40;2.17;;;1.30;;
13897;SDS011;7019;50.766;4.474;2023-05-10T14:12:07;1.53;;;1.30;;
13897;SDS011;7019;50.766;4.474;2023-05-10T14:14:35;1.53;;;1.43;;
13897;SDS011;7019;50.766;4.474;2023-05-10T14:17:02;2.30;;;1.27;;
13897;SDS011;7019;50.766;4.474;2023-05-10T14:19:29;3.00;;;1.50;;
13897;SDS011;7019;50.766;4.474;2023-05-10T14:21:57;2.90;;;2.13;;
13897;SDS011;7019;50.766;4.474;2023-05-10T14:24:24;3.63;;;1.90;;
13897;SDS011;7019;50.766;4.474;2023-05-10T14:26:51;2.13;;;1.90;;
13897;SDS011;7019;50.766;4.474;2023-05-10T14:29:19;4.53;;;2.03;;
13897;SDS011;7019;50.766;4.474;2023-05-10T14:31:47;2.67;;;2.00;;
13897;SDS011;7019;50.766;4.474;2023-05-10T14:34:14;2.93;;;2.53;;
13897;SDS011;7019;50.766;4.474;2023-05-10T14:36:41;3.37;;;3.07;;
13897;SDS011;7019;50.766;4.474;2023-05-10T14:39:08;3.10;;;2.70;;
13897;SDS011;7019;50.766;4.474;2023-05-10T14:41:37;4.47;;;2.70;;
13897;SDS011;7019;50.766;4.474;2023-05-10T14:44:06;4.10;;;3.03;;
13897;SDS011;7019;50.766;4.474;2023-05-10T14:46:33;3.40;;;2.50;;
13897;SDS011;7019;50.766;4.474;2023-05-10T14:49:01;3.47;;;3.17;;
13897;SDS011;7019;50.766;4.474;2023-05-10T14:51:29;4.50;;;3.00;;
13897;SDS011;7019;50.766;4.474;2023-05-10T14:53:56;4.03;;;3.13;;
13897;SDS011;7019;50.766;4.474;2023-05-10T14:56:23;4.70;;;3.30;;
13897;SDS011;7019;50.766;4.474;2023-05-10T14:58:51;3.30;;;2.70;;
13897;SDS011;7019;50.766;4.474;2023-05-10T15:01:18;5.17;;;3.17;;
13897;SDS011;7019;50.766;4.474;2023-05-10T15:03:45;5.07;;;3.40;;
13897;SDS011;7019;50.766;4.474;2023-05-10T15:06:14;5.17;;;3.77;;
13897;SDS011;7019;50.766;4.474;2023-05-10T15:08:42;6.33;;;3.83;;